sensor_id;sensor_type;location;lat;lon;timestamp;pressure;altitude;pressure_sealevel;temperature;humidity
62402;BME280;48440;51.224;22.506;2023-05-16T00:01:48;98502.72;;;12.73;89.55
62402;BME280;48440;51.224;22.506;2023-05-16T00:04:13;98500.31;;;12.72;89.46
62402;BME280;48440;51.224;22.506;2023-05-16T00:06:39;98497.88;;;12.70;89.33
62402;BME280;48440;51.224;22.506;2023-05-16T00:09:04;98497.38;;;12.68;89.04
62402;BME280;48440;51.224;22.506;2023-05-16T00:11:30;98502.81;;;12.68;89.05
62402;BME280;48440;51.224;22.506;2023-05-16T00:13:56;98510.97;;;12.68;88.70
62402;BME280;48440;51.224;22.506;2023-05-16T00:16:22;98515.88;;;12.66;88.83
62402;BME280;48440;51.224;22.506;2023-05-16T00:18:52;98511.81;;;12.64;88.54
62402;BME280;48440;51.224;22.506;2023-05-16T00:21:20;98509.09;;;12.64;88.79
62402;BME280;48440;51.224;22.506;2023-05-16T00:23:46;98512.41;;;12.61;88.51
62402;BME280;48440;51.224;22.506;2023-05-16T00:26:14;98513.78;;;12.58;88.33
62402;BME280;48440;51.224;22.506;2023-05-16T00:28:43;98514.06;;;12.56;88.49
62402;BME280;48440;51.224;22.506;2023-05-16T00:31:09;98514.06;;;12.56;88.41
62402;BME280;48440;51.224;22.506;2023-05-16T00:33:35;98512.19;;;12.52;88.48
62402;BME280;48440;51.224;22.506;2023-05-16T00:36:00;98506.50;;;12.48;88.21
62402;BME280;48440;51.224;22.506;2023-05-16T00:38:26;98513.06;;;12.47;88.53
62402;BME280;48440;51.224;22.506;2023-05-16T00:40:51;98513.38;;;12.46;88.23
62402;BME280;48440;51.224;22.506;2023-05-16T00:43:19;98509.31;;;12.43;88.14
62402;BME280;48440;51.224;22.506;2023-05-16T00:45:45;98513.94;;;12.43;88.44
62402;BME280;48440;51.224;22.506;2023-05-16T00:48:14;98514.75;;;12.43;88.00
62402;BME280;48440;51.224;22.506;2023-05-16T00:50:40;98520.19;;;12.43;87.87
62402;BME280;48440;51.224;22.506;2023-05-16T00:53:06;98530.25;;;12.43;87.71
62402;BME280;48440;51.224;22.506;2023-05-16T00:55:36;98525.09;;;12.41;87.56
62402;BME280;48440;51.224;22.506;2023-05-16T00:58:03;98525.94;;;12.37;87.36
62402;BME280;48440;51.224;22.506;2023-05-16T01:00:29;98524.59;;;12.34;87.37
62402;BME280;48440;51.224;22.506;2023-05-16T01:02:55;98526.50;;;12.34;87.43
62402;BME280;48440;51.224;22.506;2023-05-16T01:05:21;98524.34;;;12.31;87.48
62402;BME280;48440;51.224;22.506;2023-05-16T01:07:47;98524.63;;;12.29;87.50
62402;BME280;48440;51.224;22.506;2023-05-16T01:10:14;98526.81;;;12.27;87.17
62402;BME280;48440;51.224;22.506;2023-05-16T01:15:35;98539.09;;;12.24;86.62
62402;BME280;48440;51.224;22.506;2023-05-16T01:18:27;98535.84;;;12.22;86.56
62402;BME280;48440;51.224;22.506;2023-05-16T01:20:59;98547.03;;;12.21;nan
62402;BME280;48440;51.224;22.506;2023-05-16T01:23:43;98562.22;;;12.22;86.85
62402;BME280;48440;51.224;22.506;2023-05-16T01:26:21;98562.53;;;12.20;85.99
62402;BME280;48440;51.224;22.506;2023-05-16T01:28:48;98567.16;;;12.20;86.22
62402;BME280;48440;51.224;22.506;2023-05-16T01:31:15;98567.72;;;12.17;86.26
62402;BME280;48440;51.224;22.506;2023-05-16T01:33:41;98567.72;;;12.17;85.94
62402;BME280;48440;51.224;22.506;2023-05-16T01:41:38;98581.06;;;12.13;86.00
62402;BME280;48440;51.224;22.506;2023-05-16T01:44:14;98575.91;;;12.12;85.88
62402;BME280;48440;51.224;22.506;2023-05-16T01:46:42;98574.84;;;12.08;85.61
62402;BME280;48440;51.224;22.506;2023-05-16T01:49:25;98582.47;;;12.06;85.51
62402;BME280;48440;51.224;22.506;2023-05-16T01:51:59;98582.75;;;12.04;85.43
62402;BME280;48440;51.224;22.506;2023-05-16T01:54:30;98582.75;;;12.04;85.36
62402;BME280;48440;51.224;22.506;2023-05-16T01:56:56;98584.66;;;12.04;85.18
62402;BME280;48440;51.224;22.506;2023-05-16T01:59:23;98595.00;;;12.02;85.14
62402;BME280;48440;51.224;22.506;2023-05-16T02:01:52;98583.63;;;11.95;85.11
62402;BME280;48440;51.224;22.506;2023-05-16T02:04:18;98589.09;;;11.95;84.87
62402;BME280;48440;51.224;22.506;2023-05-16T02:06:43;98596.41;;;11.94;84.81
62402;BME280;48440;51.224;22.506;2023-05-16T02:09:09;98592.06;;;11.93;84.66
62402;BME280;48440;51.224;22.506;2023-05-16T02:11:38;98582.56;;;11.91;84.60
62402;BME280;48440;51.224;22.506;2023-05-16T02:14:03;98580.69;;;11.86;84.51
62402;BME280;48440;51.224;22.506;2023-05-16T02:16:32;98583.16;;;11.82;84.33
62402;BME280;48440;51.224;22.506;2023-05-16T02:18:58;98584.78;;;11.78;84.01
62402;BME280;48440;51.224;22.506;2023-05-16T02:21:24;98587.25;;;11.80;84.07
62402;BME280;48440;51.224;22.506;2023-05-16T02:23:50;98591.31;;;11.77;83.92
62402;BME280;48440;51.224;22.506;2023-05-16T02:26:23;98592.66;;;11.75;83.69
62402;BME280;48440;51.224;22.506;2023-05-16T02:28:49;98595.38;;;11.75;83.82
62402;BME280;48440;51.224;22.506;2023-05-16T02:31:31;98592.66;;;11.75;83.76
62402;BME280;48440;51.224;22.506;2023-05-16T02:33:57;98593.22;;;11.72;83.31
62402;BME280;48440;51.224;22.506;2023-05-16T02:36:23;98600.28;;;11.73;83.42
62402;BME280;48440;51.224;22.506;2023-05-16T02:38:49;98599.75;;;11.71;83.12
62402;BME280;48440;51.224;22.506;2023-05-16T02:41:15;98592.69;;;11.70;82.97
62402;BME280;48440;51.224;22.506;2023-05-16T02:43:40;98601.69;;;11.65;83.21
62402;BME280;48440;51.224;22.506;2023-05-16T02:46:33;98597.06;;;11.66;82.94
62402;BME280;48440;51.224;22.506;2023-05-16T02:48:59;98592.44;;;11.66;83.09
62402;BME280;48440;51.224;22.506;2023-05-16T02:51:26;98576.16;;;11.66;82.90
62402;BME280;48440;51.224;22.506;2023-05-16T02:53:52;98588.91;;;11.66;82.88
62402;BME280;48440;51.224;22.506;2023-05-16T02:56:21;98590.28;;;11.63;82.93
62402;BME280;48440;51.224;22.506;2023-05-16T02:58:47;98591.91;;;11.64;82.79
62402;BME280;48440;51.224;22.506;2023-05-16T03:01:13;98590.00;;;11.65;82.64
62402;BME280;48440;51.224;22.506;2023-05-16T03:03:39;98590.56;;;11.62;83.27
62402;BME280;48440;51.224;22.506;2023-05-16T03:06:05;98597.34;;;11.64;82.76
62402;BME280;48440;51.224;22.506;2023-05-16T03:08:31;98600.34;;;11.63;82.53
62402;BME280;48440;51.224;22.506;2023-05-16T03:10:57;98611.75;;;11.60;82.47
62402;BME280;48440;51.224;22.506;2023-05-16T03:13:23;98623.16;;;11.62;82.27
62402;BME280;48440;51.224;22.506;2023-05-16T03:15:52;98615.28;;;11.60;82.22
62402;BME280;48440;51.224;22.506;2023-05-16T03:18:18;98616.38;;;11.59;82.15
62402;BME280;48440;51.224;22.506;2023-05-16T03:20:43;98623.44;;;11.60;82.50
62402;BME280;48440;51.224;22.506;2023-05-16T03:23:09;98623.19;;;11.56;81.98
62402;BME280;48440;51.224;22.506;2023-05-16T03:25:34;98624.00;;;11.57;82.25
62402;BME280;48440;51.224;22.506;2023-05-16T03:28:05;98624.81;;;11.57;81.95
62402;BME280;48440;51.224;22.506;2023-05-16T03:30:33;98631.34;;;11.56;82.53
62402;BME280;48440;51.224;22.506;2023-05-16T03:32:58;98638.94;;;11.60;82.30
62402;BME280;48440;51.224;22.506;2023-05-16T03:35:24;98626.72;;;11.57;82.21
62402;BME280;48440;51.224;22.506;2023-05-16T03:37:49;98630.25;;;11.57;82.29
62402;BME280;48440;51.224;22.506;2023-05-16T03:40:15;98624.53;;;11.59;82.53
62402;BME280;48440;51.224;22.506;2023-05-16T03:42:40;98626.97;;;11.66;82.30
62402;BME280;48440;51.224;22.506;2023-05-16T03:45:06;98624.78;;;11.68;82.77
62402;BME280;48440;51.224;22.506;2023-05-16T03:47:32;98631.28;;;11.72;82.77
62402;BME280;48440;51.224;22.506;2023-05-16T03:49:58;98635.91;;;11.76;82.59
62402;BME280;48440;51.224;22.506;2023-05-16T03:52:23;98637.25;;;11.79;81.84
62402;BME280;48440;51.224;22.506;2023-05-16T03:54:49;98636.69;;;11.87;82.05
62402;BME280;48440;51.224;22.506;2023-05-16T03:57:14;98640.97;;;11.98;81.60
62402;BME280;48440;51.224;22.506;2023-05-16T03:59:40;98646.66;;;12.07;80.94
62402;BME280;48440;51.224;22.506;2023-05-16T04:02:06;98646.59;;;12.17;80.55
62402;BME280;48440;51.224;22.506;2023-05-16T04:04:31;98644.31;;;12.34;80.20
62402;BME280;48440;51.224;22.506;2023-05-16T04:06:57;98646.72;;;12.41;80.43
62402;BME280;48440;51.224;22.506;2023-05-16T04:09:23;98650.69;;;12.53;79.42
62402;BME280;48440;51.224;22.506;2023-05-16T04:11:48;98651.69;;;12.68;79.25
62402;BME280;48440;51.224;22.506;2023-05-16T04:14:14;98652.94;;;12.80;78.89
62402;BME280;48440;51.224;22.506;2023-05-16T04:16:43;98659.41;;;12.89;77.98
62402;BME280;48440;51.224;22.506;2023-05-16T04:19:09;98668.91;;;12.97;77.96
62402;BME280;48440;51.224;22.506;2023-05-16T04:21:35;98661.97;;;13.10;77.31
62402;BME280;48440;51.224;22.506;2023-05-16T04:24:01;98669.28;;;13.19;77.66
62402;BME280;48440;51.224;22.506;2023-05-16T04:26:26;98670.53;;;13.27;77.12
62402;BME280;48440;51.224;22.506;2023-05-16T04:28:52;98675.66;;;13.34;76.64
62402;BME280;48440;51.224;22.506;2023-05-16T04:31:18;98679.41;;;13.43;76.54
62402;BME280;48440;51.224;22.506;2023-05-16T04:33:44;98675.72;;;13.52;76.31
62402;BME280;48440;51.224;22.506;2023-05-16T04:36:10;98678.66;;;13.61;75.59
62402;BME280;48440;51.224;22.506;2023-05-16T04:38:35;98674.53;;;13.64;76.26
62402;BME280;48440;51.224;22.506;2023-05-16T04:41:01;98675.16;;;13.79;75.53
62402;BME280;48440;51.224;22.506;2023-05-16T04:43:28;98689.16;;;13.97;74.83
62402;BME280;48440;51.224;22.506;2023-05-16T04:45:53;98691.81;;;14.02;74.41
62402;BME280;48440;51.224;22.506;2023-05-16T04:48:19;98696.19;;;14.21;73.97
62402;BME280;48440;51.224;22.506;2023-05-16T04:50:44;98702.84;;;14.34;73.34
62402;BME280;48440;51.224;22.506;2023-05-16T04:53:10;98699.22;;;14.44;72.88
62402;BME280;48440;51.224;22.506;2023-05-16T04:55:36;98699.88;;;14.54;73.41
62402;BME280;48440;51.224;22.506;2023-05-16T04:58:01;98695.59;;;14.67;72.24
62402;BME280;48440;51.224;22.506;2023-05-16T05:00:27;98695.56;;;14.86;71.88
62402;BME280;48440;51.224;22.506;2023-05-16T05:02:52;98695.63;;;15.00;71.47
62402;BME280;48440;51.224;22.506;2023-05-16T05:05:18;98696.06;;;15.07;70.90
62402;BME280;48440;51.224;22.506;2023-05-16T05:07:43;98692.56;;;15.20;71.21
62402;BME280;48440;51.224;22.506;2023-05-16T05:10:09;98693.41;;;15.34;71.06
62402;BME280;48440;51.224;22.506;2023-05-16T05:12:36;98697.50;;;15.50;70.68
62402;BME280;48440;51.224;22.506;2023-05-16T05:15:02;98702.78;;;15.60;70.21
62402;BME280;48440;51.224;22.506;2023-05-16T05:17:28;98702.13;;;15.82;70.05
62402;BME280;48440;51.224;22.506;2023-05-16T05:19:54;98690.88;;;15.98;69.00
62402;BME280;48440;51.224;22.506;2023-05-16T05:22:19;98699.88;;;16.12;68.04
62402;BME280;48440;51.224;22.506;2023-05-16T05:24:45;98701.19;;;16.28;68.83
62402;BME280;48440;51.224;22.506;2023-05-16T05:27:11;98707.38;;;16.34;67.89
62402;BME280;48440;51.224;22.506;2023-05-16T05:29:37;98700.75;;;16.48;67.37
62402;BME280;48440;51.224;22.506;2023-05-16T05:32:03;98697.47;;;16.60;66.97
62402;BME280;48440;51.224;22.506;2023-05-16T05:34:29;98698.91;;;16.57;65.86
62402;BME280;48440;51.224;22.506;2023-05-16T05:37:12;98698.56;;;16.73;66.53
62402;BME280;48440;51.224;22.506;2023-05-16T05:39:41;98694.22;;;16.94;66.40
62402;BME280;48440;51.224;22.506;2023-05-16T05:42:16;98697.13;;;17.11;66.28
62402;BME280;48440;51.224;22.506;2023-05-16T05:44:45;98694.97;;;17.30;65.38
62402;BME280;48440;51.224;22.506;2023-05-16T05:47:13;98701.19;;;17.45;65.47
62402;BME280;48440;51.224;22.506;2023-05-16T05:49:42;98700.31;;;17.58;64.87
62402;BME280;48440;51.224;22.506;2023-05-16T05:52:11;98702.16;;;17.71;65.04
62402;BME280;48440;51.224;22.506;2023-05-16T05:54:36;98710.13;;;17.81;62.81
62402;BME280;48440;51.224;22.506;2023-05-16T05:57:02;98706.63;;;17.89;63.11
62402;BME280;48440;51.224;22.506;2023-05-16T05:59:31;98706.00;;;18.01;63.05
62402;BME280;48440;51.224;22.506;2023-05-16T06:01:57;98715.25;;;18.14;63.03
62402;BME280;48440;51.224;22.506;2023-05-16T06:04:22;98715.47;;;18.35;61.98
62402;BME280;48440;51.224;22.506;2023-05-16T06:06:48;98722.59;;;18.36;60.58
62402;BME280;48440;51.224;22.506;2023-05-16T06:09:16;98721.31;;;18.42;60.15
62402;BME280;48440;51.224;22.506;2023-05-16T06:11:42;98718.19;;;18.26;59.18
62402;BME280;48440;51.224;22.506;2023-05-16T06:14:10;98731.81;;;18.40;60.11
62402;BME280;48440;51.224;22.506;2023-05-16T06:16:36;98726.81;;;18.42;59.60
62402;BME280;48440;51.224;22.506;2023-05-16T06:19:03;98729.56;;;18.59;58.65
62402;BME280;48440;51.224;22.506;2023-05-16T06:21:29;98733.66;;;18.61;58.82
62402;BME280;48440;51.224;22.506;2023-05-16T06:23:55;98743.22;;;18.81;58.35
62402;BME280;48440;51.224;22.506;2023-05-16T06:26:29;98747.75;;;18.69;57.81
62402;BME280;48440;51.224;22.506;2023-05-16T06:29:23;98753.22;;;18.77;58.51
62402;BME280;48440;51.224;22.506;2023-05-16T06:42:19;98768.13;;;19.19;58.20
62402;BME280;48440;51.224;22.506;2023-05-16T06:44:50;98772.66;;;19.41;58.19
62402;BME280;48440;51.224;22.506;2023-05-16T06:47:16;98776.16;;;19.76;57.35
62402;BME280;48440;51.224;22.506;2023-05-16T06:50:02;98775.00;;;19.94;57.34
62402;BME280;48440;51.224;22.506;2023-05-16T06:52:38;98777.47;;;19.79;55.73
62402;BME280;48440;51.224;22.506;2023-05-16T06:58:09;98780.84;;;19.93;55.19
62402;BME280;48440;51.224;22.506;2023-05-16T07:00:41;98788.38;;;20.13;55.27
62402;BME280;48440;51.224;22.506;2023-05-16T07:03:08;98783.25;;;19.94;54.25
62402;BME280;48440;51.224;22.506;2023-05-16T07:05:33;98783.25;;;19.94;54.31
62402;BME280;48440;51.224;22.506;2023-05-16T07:07:59;98786.50;;;19.96;54.72
62402;BME280;48440;51.224;22.506;2023-05-16T07:10:25;98789.41;;;20.00;54.40
62402;BME280;48440;51.224;22.506;2023-05-16T07:12:52;98793.28;;;19.99;53.42
62402;BME280;48440;51.224;22.506;2023-05-16T07:15:18;98793.63;;;19.97;53.96
62402;BME280;48440;51.224;22.506;2023-05-16T07:17:43;98794.72;;;20.05;53.73
62402;BME280;48440;51.224;22.506;2023-05-16T07:20:10;98780.34;;;20.29;54.33
62402;BME280;48440;51.224;22.506;2023-05-16T07:22:39;98781.41;;;20.54;54.04
62402;BME280;48440;51.224;22.506;2023-05-16T07:25:07;98775.94;;;20.45;54.16
62402;BME280;48440;51.224;22.506;2023-05-16T07:27:38;98773.56;;;20.64;52.92
62402;BME280;48440;51.224;22.506;2023-05-16T07:30:07;98771.41;;;20.49;51.83
62402;BME280;48440;51.224;22.506;2023-05-16T07:32:33;98777.91;;;20.45;50.89
62402;BME280;48440;51.224;22.506;2023-05-16T07:34:59;98780.81;;;20.48;51.23
62402;BME280;48440;51.224;22.506;2023-05-16T07:37:24;98787.38;;;20.56;51.32
62402;BME280;48440;51.224;22.506;2023-05-16T07:39:50;98778.03;;;20.48;51.87
62402;BME280;48440;51.224;22.506;2023-05-16T07:42:15;98779.03;;;20.35;51.71
62402;BME280;48440;51.224;22.506;2023-05-16T07:44:41;98779.44;;;20.16;51.60
62402;BME280;48440;51.224;22.506;2023-05-16T07:47:06;98787.31;;;20.35;52.39
62402;BME280;48440;51.224;22.506;2023-05-16T07:49:32;98783.75;;;20.73;52.85
62402;BME280;48440;51.224;22.506;2023-05-16T07:51:57;98790.31;;;20.80;50.95
62402;BME280;48440;51.224;22.506;2023-05-16T07:54:23;98795.47;;;20.61;50.27
62402;BME280;48440;51.224;22.506;2023-05-16T07:56:48;98798.81;;;20.75;51.10
62402;BME280;48440;51.224;22.506;2023-05-16T07:59:13;98787.31;;;20.73;52.21
62402;BME280;48440;51.224;22.506;2023-05-16T08:01:39;98798.41;;;20.56;52.12
62402;BME280;48440;51.224;22.506;2023-05-16T08:04:05;98794.75;;;20.43;52.80
62402;BME280;48440;51.224;22.506;2023-05-16T08:06:31;98787.63;;;20.33;50.62
62402;BME280;48440;51.224;22.506;2023-05-16T08:08:56;98793.47;;;20.32;51.41
62402;BME280;48440;51.224;22.506;2023-05-16T08:11:22;98797.94;;;20.07;51.17
62402;BME280;48440;51.224;22.506;2023-05-16T08:14:14;98791.91;;;20.22;51.16
62402;BME280;48440;51.224;22.506;2023-05-16T08:16:43;98795.75;;;20.30;50.77
62402;BME280;48440;51.224;22.506;2023-05-16T08:19:08;98798.03;;;20.28;50.87
62402;BME280;48440;51.224;22.506;2023-05-16T08:21:34;98799.19;;;20.65;50.84
62402;BME280;48440;51.224;22.506;2023-05-16T08:24:01;98791.00;;;20.77;50.89
62402;BME280;48440;51.224;22.506;2023-05-16T08:26:28;98797.59;;;20.85;50.62
62402;BME280;48440;51.224;22.506;2023-05-16T08:28:53;98804.09;;;20.80;49.92
62402;BME280;48440;51.224;22.506;2023-05-16T08:31:18;98803.25;;;20.88;49.25
62402;BME280;48440;51.224;22.506;2023-05-16T08:33:45;98806.97;;;20.92;48.73
62402;BME280;48440;51.224;22.506;2023-05-16T08:36:10;98815.75;;;20.86;48.70
62402;BME280;48440;51.224;22.506;2023-05-16T08:38:35;98812.94;;;20.74;49.04
62402;BME280;48440;51.224;22.506;2023-05-16T08:41:01;98808.41;;;20.69;49.74
62402;BME280;48440;51.224;22.506;2023-05-16T08:43:27;98813.81;;;20.57;50.28
62402;BME280;48440;51.224;22.506;2023-05-16T08:45:52;98818.94;;;20.67;49.63
62402;BME280;48440;51.224;22.506;2023-05-16T08:48:22;98819.91;;;20.71;49.49
62402;BME280;48440;51.224;22.506;2023-05-16T08:51:05;98829.28;;;20.41;49.54
62402;BME280;48440;51.224;22.506;2023-05-16T08:53:44;98826.44;;;20.58;49.69
62402;BME280;48440;51.224;22.506;2023-05-16T08:56:12;98832.34;;;20.48;49.17
62402;BME280;48440;51.224;22.506;2023-05-16T08:58:39;98837.00;;;20.56;49.30
62402;BME280;48440;51.224;22.506;2023-05-16T09:01:04;98823.94;;;20.74;49.39
62402;BME280;48440;51.224;22.506;2023-05-16T09:03:35;98834.34;;;20.68;48.93
62402;BME280;48440;51.224;22.506;2023-05-16T09:06:02;98833.56;;;20.59;47.72
62402;BME280;48440;51.224;22.506;2023-05-16T09:19:41;98838.72;;;20.69;51.31
62402;BME280;48440;51.224;22.506;2023-05-16T09:24:45;98853.63;;;20.77;50.96
62402;BME280;48440;51.224;22.506;2023-05-16T09:27:12;98857.03;;;20.74;51.14
62402;BME280;48440;51.224;22.506;2023-05-16T09:29:42;98852.06;;;20.58;50.55
62402;BME280;48440;51.224;22.506;2023-05-16T09:32:12;98842.00;;;20.62;51.58
62402;BME280;48440;51.224;22.506;2023-05-16T09:34:46;98850.75;;;20.64;51.68
62402;BME280;48440;51.224;22.506;2023-05-16T09:37:22;98862.69;;;20.77;51.61
62402;BME280;48440;51.224;22.506;2023-05-16T09:39:49;98858.72;;;20.87;50.46
62402;BME280;48440;51.224;22.506;2023-05-16T09:42:17;98857.75;;;20.91;49.74
62402;BME280;48440;51.224;22.506;2023-05-16T09:44:50;98863.44;;;20.86;50.10
62402;BME280;48440;51.224;22.506;2023-05-16T09:47:17;98862.16;;;20.84;50.33
62402;BME280;48440;51.224;22.506;2023-05-16T09:49:44;98858.59;;;20.83;51.61
62402;BME280;48440;51.224;22.506;2023-05-16T09:52:11;98850.41;;;20.95;52.71
62402;BME280;48440;51.224;22.506;2023-05-16T09:54:37;98866.84;;;21.13;50.72
62402;BME280;48440;51.224;22.506;2023-05-16T09:57:05;98860.94;;;21.02;49.45
62402;BME280;48440;51.224;22.506;2023-05-16T09:59:38;98860.31;;;20.96;50.01
62402;BME280;48440;51.224;22.506;2023-05-16T10:02:05;98878.03;;;20.87;49.51
62402;BME280;48440;51.224;22.506;2023-05-16T10:04:35;98862.91;;;20.93;49.84
62402;BME280;48440;51.224;22.506;2023-05-16T10:07:05;98870.09;;;21.15;50.48
62402;BME280;48440;51.224;22.506;2023-05-16T10:09:32;98865.69;;;21.22;49.99
62402;BME280;48440;51.224;22.506;2023-05-16T10:12:00;98870.91;;;21.15;49.63
62402;BME280;48440;51.224;22.506;2023-05-16T10:14:35;98878.56;;;21.10;50.54
62402;BME280;48440;51.224;22.506;2023-05-16T10:17:05;98879.84;;;21.12;50.68
62402;BME280;48440;51.224;22.506;2023-05-16T10:19:35;98872.69;;;21.11;49.28
62402;BME280;48440;51.224;22.506;2023-05-16T10:22:06;98875.53;;;21.03;49.26
62402;BME280;48440;51.224;22.506;2023-05-16T10:24:43;98882.53;;;21.00;50.35
62402;BME280;48440;51.224;22.506;2023-05-16T10:27:14;98880.09;;;20.98;50.03
62402;BME280;48440;51.224;22.506;2023-05-16T10:29:40;98873.91;;;21.02;50.50
62402;BME280;48440;51.224;22.506;2023-05-16T10:32:07;98875.19;;;21.04;49.09
62402;BME280;48440;51.224;22.506;2023-05-16T10:34:33;98877.16;;;21.04;48.44
62402;BME280;48440;51.224;22.506;2023-05-16T10:36:59;98882.09;;;20.89;49.11
62402;BME280;48440;51.224;22.506;2023-05-16T10:39:25;98872.16;;;20.97;48.83
62402;BME280;48440;51.224;22.506;2023-05-16T10:41:51;98877.88;;;21.21;49.73
62402;BME280;48440;51.224;22.506;2023-05-16T10:44:19;98864.59;;;21.36;48.91
62402;BME280;48440;51.224;22.506;2023-05-16T10:46:46;98868.44;;;21.22;49.47
62402;BME280;48440;51.224;22.506;2023-05-16T10:49:41;98869.31;;;21.06;48.46
62402;BME280;48440;51.224;22.506;2023-05-16T10:52:10;98869.22;;;21.02;48.13
62402;BME280;48440;51.224;22.506;2023-05-16T10:54:39;98877.59;;;21.06;49.79
62402;BME280;48440;51.224;22.506;2023-05-16T10:59:40;98867.91;;;20.99;48.24
62402;BME280;48440;51.224;22.506;2023-05-16T11:04:48;98872.16;;;20.97;49.80
62402;BME280;48440;51.224;22.506;2023-05-16T11:07:16;98866.16;;;20.95;48.86
62402;BME280;48440;51.224;22.506;2023-05-16T11:09:45;98861.44;;;20.95;48.28
62402;BME280;48440;51.224;22.506;2023-05-16T11:12:11;98857.47;;;21.05;49.30
62402;BME280;48440;51.224;22.506;2023-05-16T11:14:38;98865.72;;;21.14;48.95
62402;BME280;48440;51.224;22.506;2023-05-16T11:22:23;98865.63;;;21.02;47.19
62402;BME280;48440;51.224;22.506;2023-05-16T11:25:02;98865.81;;;20.96;47.08
62402;BME280;48440;51.224;22.506;2023-05-16T11:27:31;98863.44;;;20.86;46.35
62402;BME280;48440;51.224;22.506;2023-05-16T11:32:32;98864.25;;;20.87;46.83
62402;BME280;48440;51.224;22.506;2023-05-16T11:34:58;98857.69;;;21.00;48.79
62402;BME280;48440;51.224;22.506;2023-05-16T11:37:24;98858.84;;;20.99;47.18
62402;BME280;48440;51.224;22.506;2023-05-16T11:39:49;98874.56;;;20.98;47.52
62402;BME280;48440;51.224;22.506;2023-05-16T11:42:15;98878.41;;;21.06;47.36
62402;BME280;48440;51.224;22.506;2023-05-16T11:44:43;98884.50;;;20.91;46.84
62402;BME280;48440;51.224;22.506;2023-05-16T11:47:08;98883.22;;;20.88;46.98
62402;BME280;48440;51.224;22.506;2023-05-16T11:49:34;98865.00;;;20.96;46.81
62402;BME280;48440;51.224;22.506;2023-05-16T11:52:01;98864.41;;;20.90;45.99
62402;BME280;48440;51.224;22.506;2023-05-16T11:54:27;98861.31;;;20.92;47.59
62402;BME280;48440;51.224;22.506;2023-05-16T11:56:52;98855.75;;;21.00;47.25
62402;BME280;48440;51.224;22.506;2023-05-16T11:59:18;98858.34;;;20.97;46.81
62402;BME280;48440;51.224;22.506;2023-05-16T12:01:43;98864.50;;;21.03;46.71
62402;BME280;48440;51.224;22.506;2023-05-16T12:04:14;98866.34;;;20.90;48.08
62402;BME280;48440;51.224;22.506;2023-05-16T12:06:40;98863.44;;;20.86;48.27
62402;BME280;48440;51.224;22.506;2023-05-16T12:09:13;98866.34;;;20.90;48.21
62402;BME280;48440;51.224;22.506;2023-05-16T12:11:41;98863.44;;;20.86;47.50
62402;BME280;48440;51.224;22.506;2023-05-16T12:14:09;98861.16;;;20.88;48.14
62402;BME280;48440;51.224;22.506;2023-05-16T12:16:36;98865.34;;;20.94;48.87
62402;BME280;48440;51.224;22.506;2023-05-16T12:19:04;98861.63;;;20.90;49.53
62402;BME280;48440;51.224;22.506;2023-05-16T12:21:30;98865.91;;;20.79;48.90
62402;BME280;48440;51.224;22.506;2023-05-16T12:23:56;98856.84;;;20.79;48.85
62402;BME280;48440;51.224;22.506;2023-05-16T12:26:30;98859.50;;;20.66;49.81
62402;BME280;48440;51.224;22.506;2023-05-16T12:29:00;98867.63;;;20.63;49.34
62402;BME280;48440;51.224;22.506;2023-05-16T12:31:38;98873.44;;;20.61;49.56
62402;BME280;48440;51.224;22.506;2023-05-16T12:34:04;98870.53;;;20.66;49.50
62402;BME280;48440;51.224;22.506;2023-05-16T12:36:38;98869.69;;;20.75;49.08
62402;BME280;48440;51.224;22.506;2023-05-16T12:39:04;98879.25;;;20.77;49.48
62402;BME280;48440;51.224;22.506;2023-05-16T12:41:30;98862.41;;;20.70;49.28
62402;BME280;48440;51.224;22.506;2023-05-16T12:44:06;98864.00;;;20.71;49.50
62402;BME280;48440;51.224;22.506;2023-05-16T12:46:31;98865.78;;;20.76;49.56
62402;BME280;48440;51.224;22.506;2023-05-16T12:49:01;98858.59;;;20.83;49.42
62402;BME280;48440;51.224;22.506;2023-05-16T12:51:29;98862.97;;;20.84;49.75
62402;BME280;48440;51.224;22.506;2023-05-16T12:53:56;98867.06;;;20.78;49.23
62402;BME280;48440;51.224;22.506;2023-05-16T12:56:22;98868.88;;;20.74;49.22
62402;BME280;48440;51.224;22.506;2023-05-16T12:58:49;98865.81;;;20.67;48.64
62402;BME280;48440;51.224;22.506;2023-05-16T13:01:16;98864.63;;;20.47;47.66
62402;BME280;48440;51.224;22.506;2023-05-16T13:03:41;98869.16;;;20.43;48.06
62402;BME280;48440;51.224;22.506;2023-05-16T13:06:07;98866.88;;;20.45;48.03
62402;BME280;48440;51.224;22.506;2023-05-16T13:08:32;98869.31;;;20.47;48.99
62402;BME280;48440;51.224;22.506;2023-05-16T13:10:59;98867.38;;;20.47;49.94
62402;BME280;48440;51.224;22.506;2023-05-16T13:13:24;98874.50;;;20.48;50.81
62402;BME280;48440;51.224;22.506;2023-05-16T13:15:50;98880.00;;;20.48;49.58
62402;BME280;48440;51.224;22.506;2023-05-16T13:18:16;98875.97;;;20.46;49.48
62402;BME280;48440;51.224;22.506;2023-05-16T13:20:41;98869.59;;;20.54;49.21
62402;BME280;48440;51.224;22.506;2023-05-16T13:23:07;98864.44;;;20.52;48.54
62402;BME280;48440;51.224;22.506;2023-05-16T13:25:33;98869.94;;;20.52;49.36
62402;BME280;48440;51.224;22.506;2023-05-16T13:27:59;98865.09;;;20.49;50.93
62402;BME280;48440;51.224;22.506;2023-05-16T13:30:25;98856.50;;;20.51;50.34
62402;BME280;48440;51.224;22.506;2023-05-16T13:32:50;98853.75;;;20.51;49.73
62402;BME280;48440;51.224;22.506;2023-05-16T13:35:17;98860.50;;;20.53;49.65
62402;BME280;48440;51.224;22.506;2023-05-16T13:37:43;98867.97;;;20.53;49.32
62402;BME280;48440;51.224;22.506;2023-05-16T13:40:08;98854.88;;;20.50;48.77
62402;BME280;48440;51.224;22.506;2023-05-16T13:42:35;98860.06;;;20.51;49.94